Time;durP1;ratioP1;P1;durP2;ratioP2;P2;SDS_P1;SDS_P2;PMS_P1;PMS_P2;Temp;Humidity;BMP_temperature;BMP_pressure;BME280_temperature;BME280_humidity;BME280_pressure;Samples;Min_cycle;Max_cycle;Signal;HPM_P1;HPM_P2
2023/03/17 00:01:40;;;;;;;4.40;2.83;;;;;;;;;;5034818;28;20179;-69
2023/03/17 00:04:06;;;;;;;4.60;2.67;;;;;;;;;;5034171;28;20298;-67
2023/03/17 00:06:32;;;;;;;5.10;2.60;;;;;;;;;;5034242;28;20206;-70
2023/03/17 00:08:59;;;;;;;3.27;2.97;;;;;;;;;;5034832;28;20183;-68
2023/03/17 00:11:26;;;;;;;4.93;2.67;;;;;;;;;;5034583;28;20203;-69
2023/03/17 00:13:52;;;;;;;4.33;2.80;;;;;;;;;;5049811;28;20256;-68
2023/03/17 00:16:22;;;;;;;3.97;2.70;;;;;;;;;;5034448;28;20176;-69
2023/03/17 00:18:49;;;;;;;5.07;3.00;;;;;;;;;;5034249;28;20213;-67
2023/03/17 00:21:18;;;;;;;3.67;2.73;;;;;;;;;;5034849;28;20183;-68
2023/03/17 00:23:46;;;;;;;6.50;2.80;;;;;;;;;;5049588;28;20199;-68
2023/03/17 00:26:13;;;;;;;4.40;2.60;;;;;;;;;;5034310;28;20182;-68
2023/03/17 00:28:39;;;;;;;4.67;2.80;;;;;;;;;;5034419;28;20178;-69
2023/03/17 00:31:15;;;;;;;5.17;3.10;;;;;;;;;;5049645;28;20191;-67
2023/03/17 00:33:41;;;;;;;3.17;2.60;;;;;;;;;;5049541;28;20677;-68
2023/03/17 00:36:10;;;;;;;3.73;2.90;;;;;;;;;;5033922;28;20198;-69
2023/03/17 00:38:36;;;;;;;3.43;2.60;;;;;;;;;;5034139;28;20616;-68
2023/03/17 00:41:03;;;;;;;5.27;2.50;;;;;;;;;;5034191;28;20182;-68
2023/03/17 00:43:29;;;;;;;3.33;2.60;;;;;;;;;;5034282;28;20660;-67
2023/03/17 00:45:55;;;;;;;7.10;3.67;;;;;;;;;;5034162;28;20171;-69
2023/03/17 00:48:21;;;;;;;3.37;2.83;;;;;;;;;;5034559;28;20179;-68
2023/03/17 00:50:48;;;;;;;5.10;2.93;;;;;;;;;;5033933;28;20181;-69
2023/03/17 00:53:15;;;;;;;5.33;3.23;;;;;;;;;;5048992;28;20238;-68
2023/03/17 00:55:43;;;;;;;3.70;2.57;;;;;;;;;;5048918;28;20659;-69
2023/03/17 00:58:18;;;;;;;6.83;2.90;;;;;;;;;;5034323;28;20210;-68
2023/03/17 01:00:44;;;;;;;3.03;2.50;;;;;;;;;;5033558;28;20175;-68
2023/03/17 01:03:11;;;;;;;5.13;2.37;;;;;;;;;;5033370;28;20206;-68
2023/03/17 01:05:38;;;;;;;4.00;2.97;;;;;;;;;;5034026;28;20182;-66
2023/03/17 01:08:04;;;;;;;3.20;2.57;;;;;;;;;;5033620;28;20207;-66
2023/03/17 01:10:30;;;;;;;4.80;2.70;;;;;;;;;;5048710;28;20190;-65
2023/03/17 01:12:59;;;;;;;5.23;2.83;;;;;;;;;;5033140;28;20234;-66
2023/03/17 01:15:27;;;;;;;4.73;2.80;;;;;;;;;;5033435;28;20183;-67
2023/03/17 01:17:54;;;;;;;3.63;2.70;;;;;;;;;;5033328;28;20261;-66
2023/03/17 01:20:28;;;;;;;4.30;2.23;;;;;;;;;;5035930;28;20645;-65
2023/03/17 01:22:54;;;;;;;3.33;2.53;;;;;;;;;;5052758;28;20289;-68
2023/03/17 01:25:21;;;;;;;5.10;2.90;;;;;;;;;;5037206;28;20183;-66
2023/03/17 01:27:47;;;;;;;3.23;2.60;;;;;;;;;;5037491;28;20224;-67
2023/03/17 01:30:19;;;;;;;4.13;2.90;;;;;;;;;;5037060;28;20185;-68
2023/03/17 01:32:46;;;;;;;3.13;2.80;;;;;;;;;;5037297;28;20210;-67
2023/03/17 01:35:12;;;;;;;4.13;2.70;;;;;;;;;;5037338;28;20603;-68
2023/03/17 01:37:38;;;;;;;3.83;2.80;;;;;;;;;;5036870;28;20202;-67
2023/03/17 01:40:05;;;;;;;4.30;2.87;;;;;;;;;;5036916;28;20210;-66
2023/03/17 01:42:31;;;;;;;3.33;3.00;;;;;;;;;;5052308;28;20602;-67
2023/03/17 01:44:59;;;;;;;4.50;2.77;;;;;;;;;;5037228;28;20180;-67
2023/03/17 01:47:25;;;;;;;3.83;2.80;;;;;;;;;;5037389;28;20175;-66
2023/03/17 01:49:51;;;;;;;5.80;2.80;;;;;;;;;;5037003;28;20185;-66
2023/03/17 01:52:19;;;;;;;2.93;2.63;;;;;;;;;;5036979;28;20179;-67
2023/03/17 01:54:49;;;;;;;3.60;2.67;;;;;;;;;;5036576;28;20179;-66
2023/03/17 01:57:18;;;;;;;5.63;2.53;;;;;;;;;;5036720;28;20290;-66
2023/03/17 01:59:46;;;;;;;4.50;2.37;;;;;;;;;;5036777;28;20254;-67
2023/03/17 02:02:15;;;;;;;3.40;2.50;;;;;;;;;;5036632;28;20187;-67
2023/03/17 02:04:41;;;;;;;4.20;2.70;;;;;;;;;;5036425;28;20229;-67
2023/03/17 02:07:07;;;;;;;4.73;2.60;;;;;;;;;;5036445;28;20257;-67
2023/03/17 02:09:33;;;;;;;4.03;2.60;;;;;;;;;;5051869;28;20183;-66
2023/03/17 02:12:01;;;;;;;5.40;2.73;;;;;;;;;;5036396;28;20183;-66
2023/03/17 02:14:28;;;;;;;3.33;2.87;;;;;;;;;;5036700;28;20201;-67
2023/03/17 02:16:54;;;;;;;4.50;2.60;;;;;;;;;;5036174;28;20240;-66
2023/03/17 02:19:20;;;;;;;3.83;2.70;;;;;;;;;;5036431;28;20180;-66
2023/03/17 02:21:49;;;;;;;4.07;2.30;;;;;;;;;;5036384;28;20668;-67
2023/03/17 02:24:25;;;;;;;5.20;2.50;;;;;;;;;;5036081;28;20195;-67
2023/03/17 02:26:53;;;;;;;2.60;2.10;;;;;;;;;;5036441;28;20163;-67
2023/03/17 02:29:20;;;;;;;4.70;2.43;;;;;;;;;;5051533;28;20266;-66
2023/03/17 02:31:46;;;;;;;3.17;2.70;;;;;;;;;;5035705;28;20259;-67
2023/03/17 02:34:12;;;;;;;3.20;2.70;;;;;;;;;;5035933;28;20229;-66
2023/03/17 02:36:38;;;;;;;3.07;2.60;;;;;;;;;;5035955;28;20172;-67
2023/03/17 02:39:04;;;;;;;5.50;2.77;;;;;;;;;;5036075;28;20210;-67
2023/03/17 02:41:30;;;;;;;3.90;3.20;;;;;;;;;;5035855;28;20660;-66
2023/03/17 02:43:56;;;;;;;6.00;2.70;;;;;;;;;;5035756;28;20195;-67
2023/03/17 02:46:22;;;;;;;4.80;2.80;;;;;;;;;;5035578;28;20179;-66
2023/03/17 02:48:48;;;;;;;4.73;2.60;;;;;;;;;;5035722;28;20577;-66
2023/03/17 02:51:15;;;;;;;3.50;2.43;;;;;;;;;;5035676;28;20179;-66
2023/03/17 02:53:41;;;;;;;4.20;3.33;;;;;;;;;;5050921;28;20209;-66
2023/03/17 02:56:07;;;;;;;3.90;2.50;;;;;;;;;;5035482;28;20183;-66
2023/03/17 02:58:33;;;;;;;3.00;2.40;;;;;;;;;;5035779;28;20213;-67
2023/03/17 03:00:59;;;;;;;3.40;2.77;;;;;;;;;;5035581;28;20179;-67
2023/03/17 03:03:25;;;;;;;9.13;5.83;;;;;;;;;;5035384;28;20405;-67
2023/03/17 03:05:51;;;;;;;11.60;8.47;;;;;;;;;;5035373;28;20175;-67
2023/03/17 03:08:17;;;;;;;8.93;5.40;;;;;;;;;;5035635;28;20222;-69
2023/03/17 03:10:43;;;;;;;4.80;2.87;;;;;;;;;;5050670;28;20238;-67
2023/03/17 03:13:09;;;;;;;4.23;2.97;;;;;;;;;;5050783;28;20556;-67
2023/03/17 03:15:36;;;;;;;4.17;2.77;;;;;;;;;;5035566;28;20183;-67
2023/03/17 03:18:02;;;;;;;3.60;2.40;;;;;;;;;;5035013;28;20202;-66
2023/03/17 03:20:28;;;;;;;3.90;2.80;;;;;;;;;;5050427;28;20186;-67
2023/03/17 03:22:54;;;;;;;3.53;2.70;;;;;;;;;;5035236;28;20195;-66
2023/03/17 03:25:20;;;;;;;2.93;2.63;;;;;;;;;;5035148;28;20553;-67
2023/03/17 03:27:46;;;;;;;4.10;2.33;;;;;;;;;;5035339;28;20603;-67
2023/03/17 03:30:13;;;;;;;3.60;2.87;;;;;;;;;;5050138;28;20191;-66
2023/03/17 03:32:39;;;;;;;7.27;2.73;;;;;;;;;;5034752;28;20696;-67
2023/03/17 03:35:05;;;;;;;4.43;2.80;;;;;;;;;;5034733;28;20551;-67
2023/03/17 03:37:31;;;;;;;3.63;2.50;;;;;;;;;;5034855;28;20199;-65
2023/03/17 03:39:57;;;;;;;4.70;2.50;;;;;;;;;;5034669;28;20225;-66
2023/03/17 03:42:23;;;;;;;3.83;2.53;;;;;;;;;;5049260;28;20229;-67
2023/03/17 03:44:49;;;;;;;2.90;2.60;;;;;;;;;;5034794;28;20175;-67
2023/03/17 03:47:15;;;;;;;4.43;2.60;;;;;;;;;;5034595;28;20179;-67
2023/03/17 03:49:41;;;;;;;4.87;2.80;;;;;;;;;;5034611;28;20232;-67
2023/03/17 03:52:07;;;;;;;4.57;2.47;;;;;;;;;;5034784;28;20683;-65
2023/03/17 03:54:33;;;;;;;4.23;2.90;;;;;;;;;;5034485;28;20326;-67
2023/03/17 03:56:59;;;;;;;2.80;2.30;;;;;;;;;;5034326;28;20216;-67
2023/03/17 03:59:25;;;;;;;3.23;2.53;;;;;;;;;;5034310;28;20172;-67
2023/03/17 04:01:51;;;;;;;3.27;2.70;;;;;;;;;;5034274;28;20179;-67
2023/03/17 04:04:17;;;;;;;7.50;2.63;;;;;;;;;;5034252;28;20301;-67
2023/03/17 04:06:43;;;;;;;4.03;2.73;;;;;;;;;;5034296;28;20180;-67
2023/03/17 04:09:09;;;;;;;3.17;2.80;;;;;;;;;;5034156;28;20178;-67
2023/03/17 04:11:35;;;;;;;4.93;2.70;;;;;;;;;;5034050;28;20188;-67
2023/03/17 04:14:01;;;;;;;4.90;2.90;;;;;;;;;;5033914;28;20199;-67
2023/03/17 04:16:27;;;;;;;2.97;2.67;;;;;;;;;;5034073;28;20679;-67
2023/03/17 04:18:53;;;;;;;3.80;2.80;;;;;;;;;;5034022;28;20582;-66
2023/03/17 04:21:20;;;;;;;3.80;3.00;;;;;;;;;;5033888;28;20171;-66
2023/03/17 04:23:46;;;;;;;4.07;2.67;;;;;;;;;;5049620;28;20654;-67
2023/03/17 04:26:12;;;;;;;3.23;2.73;;;;;;;;;;5034055;28;20207;-65
2023/03/17 04:28:38;;;;;;;4.07;2.33;;;;;;;;;;5049249;28;20215;-67
2023/03/17 04:31:04;;;;;;;5.23;2.40;;;;;;;;;;5033744;28;20214;-67
2023/03/17 04:33:30;;;;;;;3.73;2.80;;;;;;;;;;5034144;28;20673;-66
2023/03/17 04:35:57;;;;;;;3.87;2.93;;;;;;;;;;5049056;28;20277;-67
2023/03/17 04:38:23;;;;;;;2.97;2.50;;;;;;;;;;5033853;28;20195;-67
2023/03/17 04:40:49;;;;;;;4.30;2.80;;;;;;;;;;5033618;28;20179;-67
2023/03/17 04:43:17;;;;;;;5.40;2.63;;;;;;;;;;5033457;28;20570;-65
2023/03/17 04:45:42;;;;;;;2.93;2.27;;;;;;;;;;5033625;28;20236;-66
2023/03/17 04:48:08;;;;;;;3.20;2.67;;;;;;;;;;5033855;28;20681;-67
2023/03/17 04:50:34;;;;;;;5.50;3.40;;;;;;;;;;5048740;28;20268;-67
2023/03/17 04:53:00;;;;;;;5.20;2.50;;;;;;;;;;5033836;28;20249;-67
2023/03/17 04:55:26;;;;;;;3.10;2.80;;;;;;;;;;5033369;28;20187;-67
2023/03/17 04:57:52;;;;;;;4.30;2.80;;;;;;;;;;5048575;28;20293;-67
2023/03/17 05:00:19;;;;;;;3.50;2.70;;;;;;;;;;5033308;28;20199;-69
2023/03/17 05:02:45;;;;;;;5.50;3.27;;;;;;;;;;5033103;28;20286;-65
2023/03/17 05:05:11;;;;;;;3.80;2.50;;;;;;;;;;5021306;23;1077227;-70
2023/03/17 05:07:37;;;;;;;4.40;2.93;;;;;;;;;;5053989;28;20250;-69
2023/03/17 05:10:04;;;;;;;2.83;2.63;;;;;;;;;;5068810;28;20218;-70
2023/03/17 05:12:30;;;;;;;4.60;2.97;;;;;;;;;;5069054;28;20236;-69
2023/03/17 05:14:56;;;;;;;4.80;2.93;;;;;;;;;;5053112;28;20178;-70
2023/03/17 05:17:22;;;;;;;4.33;2.93;;;;;;;;;;5051908;28;20210;-70
2023/03/17 05:19:48;;;;;;;8.13;3.03;;;;;;;;;;5052015;28;20187;-70
2023/03/17 05:22:14;;;;;;;7.33;3.17;;;;;;;;;;5053062;28;20174;-70
2023/03/17 05:24:40;;;;;;;4.03;2.97;;;;;;;;;;5053926;28;20198;-69
2023/03/17 05:27:06;;;;;;;4.33;3.20;;;;;;;;;;5065105;28;20205;-70
2023/03/17 05:29:32;;;;;;;3.13;2.83;;;;;;;;;;5064779;28;20186;-69
2023/03/17 05:31:58;;;;;;;6.73;3.10;;;;;;;;;;5065290;28;20178;-70
2023/03/17 05:34:24;;;;;;;3.70;2.93;;;;;;;;;;5056933;28;20185;-69
2023/03/17 05:36:50;;;;;;;4.63;3.63;;;;;;;;;;5054175;28;20277;-70
2023/03/17 05:39:16;;;;;;;5.00;2.90;;;;;;;;;;5053635;28;20309;-68
2023/03/17 05:41:42;;;;;;;3.10;2.80;;;;;;;;;;5051959;28;20174;-68
2023/03/17 05:44:09;;;;;;;4.53;3.20;;;;;;;;;;5053360;28;20704;-70
2023/03/17 05:46:35;;;;;;;4.40;2.97;;;;;;;;;;5052994;28;20260;-69
2023/03/17 05:49:01;;;;;;;4.57;2.80;;;;;;;;;;5051858;28;20657;-70
2023/03/17 05:51:27;;;;;;;6.47;3.03;;;;;;;;;;5053606;28;20175;-69
2023/03/17 05:53:53;;;;;;;5.37;2.83;;;;;;;;;;5051770;28;20205;-69
2023/03/17 05:56:19;;;;;;;5.87;3.00;;;;;;;;;;5052863;28;20205;-69
2023/03/17 05:58:45;;;;;;;8.57;3.37;;;;;;;;;;5053128;28;20643;-69
2023/03/17 06:01:13;;;;;;;4.20;2.97;;;;;;;;;;5052799;28;20549;-69
2023/03/17 06:03:39;;;;;;;4.33;3.03;;;;;;;;;;5051669;28;20181;-68
2023/03/17 06:06:06;;;;;;;5.77;3.10;;;;;;;;;;5053514;28;20225;-69
2023/03/17 06:08:32;;;;;;;4.70;2.70;;;;;;;;;;5056493;28;20178;-69
2023/03/17 06:10:57;;;;;;;6.30;3.00;;;;;;;;;;5055661;28;20757;-69
2023/03/17 06:13:23;;;;;;;3.57;2.80;;;;;;;;;;5055805;28;20682;-69
2023/03/17 06:15:53;;;;;;;5.67;2.93;;;;;;;;;;5056725;28;20206;-69
2023/03/17 06:18:19;;;;;;;3.57;3.07;;;;;;;;;;5056349;28;20240;-69
2023/03/17 06:20:45;;;;;;;6.03;3.17;;;;;;;;;;5056168;28;20167;-69
2023/03/17 06:23:11;;;;;;;6.43;3.17;;;;;;;;;;5056470;28;20175;-68
2023/03/17 06:25:37;;;;;;;3.90;2.70;;;;;;;;;;5054848;28;20268;-69
2023/03/17 06:28:04;;;;;;;4.33;2.83;;;;;;;;;;5055414;28;20205;-69
2023/03/17 06:30:31;;;;;;;14.03;3.20;;;;;;;;;;5057875;28;20223;-69
2023/03/17 06:32:57;;;;;;;8.03;3.57;;;;;;;;;;5055248;28;20186;-69
2023/03/17 06:35:24;;;;;;;8.07;2.83;;;;;;;;;;5056299;28;20202;-69
2023/03/17 06:37:50;;;;;;;3.73;2.80;;;;;;;;;;5056367;28;20202;-69
2023/03/17 06:40:16;;;;;;;3.63;2.50;;;;;;;;;;5055202;28;20175;-68
2023/03/17 06:42:42;;;;;;;3.80;3.10;;;;;;;;;;5055299;28;20244;-70
2023/03/17 06:45:09;;;;;;;3.17;2.87;;;;;;;;;;5056034;28;20182;-69
2023/03/17 06:47:36;;;;;;;2.90;2.50;;;;;;;;;;5056349;28;20592;-69
2023/03/17 06:50:02;;;;;;;3.37;2.90;;;;;;;;;;5054914;28;20193;-70
2023/03/17 06:52:29;;;;;;;5.47;3.00;;;;;;;;;;5056424;28;20182;-70
2023/03/17 06:54:55;;;;;;;3.43;2.93;;;;;;;;;;5056255;28;20174;-70
2023/03/17 06:57:21;;;;;;;5.70;2.90;;;;;;;;;;5057355;28;20259;-70
2023/03/17 06:59:46;;;;;;;4.37;3.10;;;;;;;;;;5055878;28;20174;-68
2023/03/17 07:02:13;;;;;;;4.43;3.40;;;;;;;;;;5055706;28;20224;-68
2023/03/17 07:04:39;;;;;;;6.90;2.87;;;;;;;;;;5054426;28;20189;-70
2023/03/17 07:07:05;;;;;;;6.87;3.00;;;;;;;;;;5055807;28;20597;-68
2023/03/17 07:09:33;;;;;;;3.83;2.87;;;;;;;;;;5055846;28;20206;-68
2023/03/17 07:12:03;;;;;;;4.80;2.77;;;;;;;;;;5055847;28;20660;-68
2023/03/17 07:14:29;;;;;;;3.63;2.90;;;;;;;;;;5055902;28;20198;-69
2023/03/17 07:16:55;;;;;;;4.30;2.80;;;;;;;;;;5053152;28;20195;-68
2023/03/17 07:19:22;;;;;;;5.20;2.60;;;;;;;;;;5055508;28;20236;-68
2023/03/17 07:21:47;;;;;;;5.17;3.10;;;;;;;;;;5055420;28;20186;-68
2023/03/17 07:24:14;;;;;;;3.40;2.47;;;;;;;;;;5054187;28;20562;-69
2023/03/17 07:26:39;;;;;;;3.80;3.17;;;;;;;;;;5055539;28;20209;-69
2023/03/17 07:29:07;;;;;;;7.43;3.47;;;;;;;;;;5056631;28;20182;-69
2023/03/17 07:31:33;;;;;;;5.07;3.50;;;;;;;;;;5054018;28;20194;-72
2023/03/17 07:33:59;;;;;;;6.97;3.20;;;;;;;;;;5055156;28;20170;-68
2023/03/17 07:36:25;;;;;;;5.23;3.30;;;;;;;;;;5055244;28;20199;-68
2023/03/17 07:38:51;;;;;;;5.00;2.90;;;;;;;;;;5055416;28;20207;-68
2023/03/17 07:41:16;;;;;;;4.50;3.10;;;;;;;;;;5053954;28;20556;-68
2023/03/17 07:43:42;;;;;;;5.73;2.90;;;;;;;;;;5055836;28;20175;-68
2023/03/17 07:46:08;;;;;;;6.27;2.87;;;;;;;;;;5055492;28;20706;-68
2023/03/17 07:48:39;;;;;;;4.53;3.07;;;;;;;;;;5053763;28;20702;-68
2023/03/17 07:51:06;;;;;;;3.53;2.70;;;;;;;;;;5054918;28;20167;-68
2023/03/17 07:53:32;;;;;;;3.13;2.50;;;;;;;;;;5054745;28;20220;-69
2023/03/17 07:55:58;;;;;;;4.73;2.90;;;;;;;;;;5054610;28;20640;-68
2023/03/17 07:58:24;;;;;;;6.30;3.17;;;;;;;;;;5054887;28;20194;-68
2023/03/17 08:00:50;;;;;;;4.03;2.90;;;;;;;;;;5053751;28;20241;-68
2023/03/17 08:03:18;;;;;;;4.70;2.90;;;;;;;;;;5055194;28;20249;-69
2023/03/17 08:05:44;;;;;;;3.20;2.60;;;;;;;;;;5053511;28;20594;-68
2023/03/17 08:08:10;;;;;;;4.53;2.90;;;;;;;;;;5053756;28;20580;-70
2023/03/17 08:10:37;;;;;;;3.13;2.70;;;;;;;;;;5053909;28;20197;-69
2023/03/17 08:13:03;;;;;;;4.53;2.73;;;;;;;;;;5053936;28;20633;-68
2023/03/17 08:15:30;;;;;;;6.23;3.10;;;;;;;;;;5053537;28;20198;-69
2023/03/17 08:17:56;;;;;;;6.37;2.80;;;;;;;;;;5053598;28;20621;-69
2023/03/17 08:20:21;;;;;;;4.33;2.70;;;;;;;;;;5053630;28;20179;-69
2023/03/17 08:22:47;;;;;;;6.13;3.00;;;;;;;;;;5053627;28;20655;-69
2023/03/17 08:25:13;;;;;;;4.63;2.50;;;;;;;;;;5053396;28;20611;-68
2023/03/17 08:27:40;;;;;;;6.07;2.87;;;;;;;;;;5053336;28;20529;-69
2023/03/17 08:30:07;;;;;;;5.53;3.10;;;;;;;;;;5053832;28;20197;-69
2023/03/17 08:32:33;;;;;;;3.57;2.70;;;;;;;;;;5053648;28;20220;-69
2023/03/17 08:34:59;;;;;;;4.53;3.13;;;;;;;;;;5052230;28;20186;-69
2023/03/17 08:37:25;;;;;;;4.00;2.67;;;;;;;;;;5053260;28;20202;-69
2023/03/17 08:39:51;;;;;;;3.07;2.60;;;;;;;;;;5053428;28;20774;-69
2023/03/17 08:42:17;;;;;;;3.97;2.90;;;;;;;;;;5051955;28;20222;-68
2023/03/17 08:44:43;;;;;;;5.70;3.07;;;;;;;;;;5053542;28;20175;-69
2023/03/17 08:47:09;;;;;;;3.97;2.83;;;;;;;;;;5053167;28;20198;-69
2023/03/17 08:49:35;;;;;;;4.30;2.90;;;;;;;;;;5053108;28;20177;-71
2023/03/17 08:52:02;;;;;;;4.20;2.90;;;;;;;;;;5053120;28;20249;-68
2023/03/17 08:54:28;;;;;;;4.43;3.00;;;;;;;;;;5051856;28;20202;-69
2023/03/17 08:56:54;;;;;;;3.43;2.70;;;;;;;;;;5053008;28;20618;-69
2023/03/17 08:59:20;;;;;;;3.40;2.70;;;;;;;;;;5051634;28;20237;-69
2023/03/17 09:01:46;;;;;;;5.10;2.90;;;;;;;;;;5053011;28;20174;-68
2023/03/17 09:04:12;;;;;;;5.97;2.73;;;;;;;;;;5053424;28;20178;-68
2023/03/17 09:06:38;;;;;;;4.20;2.60;;;;;;;;;;5051645;28;20758;-69
2023/03/17 09:09:04;;;;;;;3.00;2.70;;;;;;;;;;5053281;28;20217;-69
2023/03/17 09:11:31;;;;;;;5.20;2.77;;;;;;;;;;5051706;28;20193;-69
2023/03/17 09:13:57;;;;;;;3.23;2.67;;;;;;;;;;5053009;28;20262;-70
2023/03/17 09:16:24;;;;;;;4.40;3.37;;;;;;;;;;5052690;28;20204;-69
2023/03/17 09:18:50;;;;;;;7.40;2.93;;;;;;;;;;5051454;28;20206;-69
2023/03/17 09:21:20;;;;;;;2.93;2.50;;;;;;;;;;5052610;28;20175;-68
2023/03/17 09:23:46;;;;;;;3.03;2.73;;;;;;;;;;5052914;28;20224;-68
2023/03/17 09:26:11;;;;;;;5.97;3.00;;;;;;;;;;5052921;28;20246;-68
2023/03/17 09:28:38;;;;;;;4.33;2.90;;;;;;;;;;5052760;28;20185;-69
2023/03/17 09:31:10;;;;;;;4.80;3.20;;;;;;;;;;5053060;28;20174;-69
2023/03/17 09:33:36;;;;;;;3.97;3.00;;;;;;;;;;5051383;28;20171;-69
2023/03/17 09:36:01;;;;;;;5.17;3.20;;;;;;;;;;5051227;28;20195;-69
2023/03/17 09:38:28;;;;;;;9.00;3.17;;;;;;;;;;5052643;28;20217;-69
2023/03/17 09:41:00;;;;;;;4.53;3.03;;;;;;;;;;5054726;28;20166;-69
2023/03/17 09:43:31;;;;;;;6.00;2.90;;;;;;;;;;5056576;28;20174;-70
2023/03/17 09:46:10;;;;;;;4.93;2.83;;;;;;;;;;5056416;28;20243;-69
2023/03/17 09:48:59;;;;;;;8.10;2.90;;;;;;;;;;5056597;28;20169;-69
2023/03/17 09:51:25;;;;;;;5.67;3.20;;;;;;;;;;5046160;28;20248;-69
2023/03/17 09:54:01;;;;;;;8.13;3.63;;;;;;;;;;5055074;28;20178;-69
2023/03/17 09:56:28;;;;;;;5.10;3.40;;;;;;;;;;5056763;28;20197;-69
2023/03/17 09:58:56;;;;;;;7.20;3.27;;;;;;;;;;5056547;28;20743;-69
2023/03/17 10:01:22;;;;;;;3.87;3.20;;;;;;;;;;5056391;28;20616;-69
2023/03/17 10:03:49;;;;;;;5.53;2.80;;;;;;;;;;5055135;28;20273;-70
2023/03/17 10:06:21;;;;;;;7.00;3.30;;;;;;;;;;5056140;28;20233;-69
2023/03/17 10:08:50;;;;;;;3.10;2.70;;;;;;;;;;5056082;28;20202;-69
2023/03/17 10:11:27;;;;;;;4.20;2.83;;;;;;;;;;5056225;28;20552;-69
2023/03/17 10:13:56;;;;;;;6.27;3.83;;;;;;;;;;5056021;28;20166;-69
2023/03/17 10:16:29;;;;;;;6.33;4.10;;;;;;;;;;5054671;28;20806;-69
2023/03/17 10:19:00;;;;;;;5.17;3.20;;;;;;;;;;5056534;28;20668;-70
2023/03/17 10:21:31;;;;;;;5.83;2.90;;;;;;;;;;5054587;28;20171;-70
2023/03/17 10:23:58;;;;;;;6.47;3.80;;;;;;;;;;5054856;28;20564;-70
2023/03/17 10:26:38;;;;;;;7.83;3.20;;;;;;;;;;5054696;28;20210;-70
2023/03/17 10:29:06;;;;;;;3.73;3.00;;;;;;;;;;5056688;28;20319;-69
2023/03/17 10:31:34;;;;;;;5.57;2.87;;;;;;;;;;5055734;28;20198;-70
2023/03/17 10:34:13;;;;;;;6.97;3.10;;;;;;;;;;5056272;28;20238;-70
2023/03/17 10:36:41;;;;;;;4.43;3.27;;;;;;;;;;5055888;28;20290;-70
2023/03/17 10:39:10;;;;;;;4.07;3.00;;;;;;;;;;5056087;28;20695;-70
2023/03/17 10:41:38;;;;;;;7.50;3.37;;;;;;;;;;5054490;28;20719;-71
2023/03/17 10:44:08;;;;;;;3.70;2.80;;;;;;;;;;5055593;28;20206;-70
2023/03/17 10:46:34;;;;;;;9.10;2.97;;;;;;;;;;5054080;28;20205;-71
2023/03/17 10:49:09;;;;;;;7.13;3.30;;;;;;;;;;5055868;28;20178;-70
2023/03/17 10:51:36;;;;;;;6.00;2.70;;;;;;;;;;5054188;28;20273;-70
2023/03/17 10:54:08;;;;;;;5.60;3.27;;;;;;;;;;5054175;28;20257;-70
2023/03/17 10:56:35;;;;;;;3.40;2.73;;;;;;;;;;5061718;28;20218;-70
2023/03/17 10:59:06;;;;;;;5.07;3.00;;;;;;;;;;5067199;28;20202;-70
2023/03/17 11:01:40;;;;;;;9.60;2.60;;;;;;;;;;5066636;28;20178;-70
2023/03/17 11:04:26;;;;;;;3.83;2.77;;;;;;;;;;5064481;28;20174;-70
2023/03/17 11:06:54;;;;;;;5.00;3.40;;;;;;;;;;5055343;28;20667;-70
2023/03/17 11:09:20;;;;;;;8.20;2.90;;;;;;;;;;5055248;28;20552;-69
2023/03/17 11:11:58;;;;;;;9.00;3.00;;;;;;;;;;5055531;28;20308;-70
2023/03/17 11:14:26;;;;;;;4.63;3.10;;;;;;;;;;5055802;28;20177;-70
2023/03/17 11:16:54;;;;;;;7.27;2.90;;;;;;;;;;5055412;28;20195;-69
2023/03/17 11:19:22;;;;;;;5.37;3.20;;;;;;;;;;5055390;28;20671;-69
2023/03/17 11:21:58;;;;;;;4.63;3.00;;;;;;;;;;5055241;28;20521;-69
2023/03/17 11:24:29;;;;;;;5.77;2.50;;;;;;;;;;5053643;28;20170;-70
2023/03/17 11:26:57;;;;;;;8.03;3.73;;;;;;;;;;5054869;28;20194;-69
2023/03/17 11:29:28;;;;;;;5.00;3.33;;;;;;;;;;5054983;28;20244;-69
2023/03/17 11:32:12;;;;;;;5.47;3.40;;;;;;;;;;5055072;28;20250;-69
2023/03/17 11:34:46;;;;;;;4.33;3.00;;;;;;;;;;5054559;28;20240;-69
2023/03/17 11:37:12;;;;;;;6.20;3.10;;;;;;;;;;5053167;28;20229;-69
2023/03/17 11:39:50;;;;;;;6.20;3.70;;;;;;;;;;5053140;28;20656;-69
2023/03/17 11:42:40;;;;;;;6.13;3.27;;;;;;;;;;5053287;28;20600;-69
2023/03/17 11:45:14;;;;;;;6.10;3.43;;;;;;;;;;5040620;28;20660;-70
2023/03/17 11:48:01;;;;;;;6.93;3.83;;;;;;;;;;5054396;28;20216;-69
2023/03/17 11:50:35;;;;;;;7.53;3.63;;;;;;;;;;5052820;28;20181;-70
2023/03/17 11:53:01;;;;;;;6.33;2.97;;;;;;;;;;5054723;28;20167;-69
2023/03/17 11:55:36;;;;;;;7.43;3.10;;;;;;;;;;5054710;28;20206;-69
2023/03/17 11:58:04;;;;;;;8.17;4.20;;;;;;;;;;5054885;28;20248;-69
2023/03/17 12:00:31;;;;;;;9.17;4.20;;;;;;;;;;5052457;28;20179;-69
2023/03/17 12:03:01;;;;;;;6.30;3.17;;;;;;;;;;5052485;28;20179;-70
2023/03/17 12:05:28;;;;;;;9.00;4.50;;;;;;;;;;5052394;28;20237;-69
2023/03/17 12:07:57;;;;;;;15.80;6.07;;;;;;;;;;5052815;28;20405;-69
2023/03/17 12:10:27;;;;;;;7.60;3.60;;;;;;;;;;5053963;28;20178;-70
2023/03/17 12:13:02;;;;;;;8.27;3.20;;;;;;;;;;5053803;28;20225;-70
2023/03/17 12:15:30;;;;;;;8.37;3.17;;;;;;;;;;5054115;28;20197;-69
2023/03/17 12:17:59;;;;;;;7.30;3.20;;;;;;;;;;5053703;28;20206;-71
2023/03/17 12:20:25;;;;;;;5.80;3.30;;;;;;;;;;5053848;28;20262;-69
2023/03/17 12:23:09;;;;;;;4.67;3.03;;;;;;;;;;5054056;28;20727;-70
2023/03/17 12:25:41;;;;;;;6.07;3.07;;;;;;;;;;5052263;28;20750;-70
2023/03/17 12:28:13;;;;;;;5.67;2.90;;;;;;;;;;5052426;28;20170;-68
2023/03/17 12:30:39;;;;;;;5.77;2.90;;;;;;;;;;5052333;28;20182;-70
2023/03/17 12:33:15;;;;;;;9.33;2.87;;;;;;;;;;5052344;28;20606;-70
2023/03/17 12:35:42;;;;;;;5.80;3.03;;;;;;;;;;5054051;28;20197;-70
2023/03/17 12:38:10;;;;;;;6.43;3.10;;;;;;;;;;5054409;28;20198;-70
2023/03/17 12:40:59;;;;;;;4.90;3.10;;;;;;;;;;5053370;28;20551;-70
2023/03/17 12:43:35;;;;;;;6.30;3.17;;;;;;;;;;5016584;28;20671;-68
2023/03/17 12:46:01;;;;;;;5.37;3.30;;;;;;;;;;5052650;28;20217;-69
2023/03/17 12:48:30;;;;;;;6.20;3.23;;;;;;;;;;5052318;28;20567;-68
2023/03/17 12:51:27;;;;;;;5.83;3.00;;;;;;;;;;5053745;28;20183;-70
2023/03/17 12:53:54;;;;;;;7.67;3.10;;;;;;;;;;5053158;28;20253;-70
2023/03/17 12:56:27;;;;;;;5.73;3.23;;;;;;;;;;5053175;28;20201;-69
2023/03/17 12:58:57;;;;;;;4.67;3.23;;;;;;;;;;5052899;28;20198;-70
2023/03/17 13:01:36;;;;;;;5.93;3.33;;;;;;;;;;5052963;28;20163;-68
2023/03/17 13:04:20;;;;;;;5.77;3.40;;;;;;;;;;5052933;28;20170;-68
2023/03/17 13:06:53;;;;;;;6.40;3.10;;;;;;;;;;5052534;28;20221;-68
2023/03/17 13:09:28;;;;;;;20.80;12.80;;;;;;;;;;5052909;28;20533;-68
2023/03/17 13:11:56;;;;;;;130.20;85.17;;;;;;;;;;5052984;28;20198;-70
2023/03/17 13:14:21;;;;;;;10.33;5.53;;;;;;;;;;5052317;28;20202;-70
2023/03/17 13:16:48;;;;;;;5.60;3.50;;;;;;;;;;5052206;28;20672;-70
2023/03/17 13:19:16;;;;;;;7.10;3.47;;;;;;;;;;5052918;28;20202;-70
2023/03/17 13:22:02;;;;;;;10.40;4.83;;;;;;;;;;5051349;28;20186;-70
2023/03/17 13:24:41;;;;;;;10.50;4.67;;;;;;;;;;5001730;28;20194;-70
2023/03/17 13:27:10;;;;;;;7.43;4.20;;;;;;;;;;5051273;28;20286;-70
2023/03/17 13:29:36;;;;;;;11.53;7.70;;;;;;;;;;5052886;28;20178;-70
2023/03/17 13:32:21;;;;;;;10.57;6.37;;;;;;;;;;5053008;28;20181;-68
2023/03/17 13:34:54;;;;;;;14.77;6.67;;;;;;;;;;5052619;28;20620;-68
2023/03/17 13:37:29;;;;;;;8.93;4.17;;;;;;;;;;5052422;28;20715;-68
2023/03/17 13:40:06;;;;;;;8.33;4.10;;;;;;;;;;5052637;28;20177;-69
2023/03/17 13:42:52;;;;;;;6.20;3.30;;;;;;;;;;5051214;28;20206;-68
2023/03/17 13:45:42;;;;;;;5.47;2.93;;;;;;;;;;5051528;28;20206;-68
2023/03/17 13:48:31;;;;;;;4.97;4.20;;;;;;;;;;5052840;28;20516;-68
2023/03/17 13:50:59;;;;;;;5.50;3.40;;;;;;;;;;5051113;28;20174;-68
2023/03/17 13:53:27;;;;;;;7.37;2.87;;;;;;;;;;5052431;28;20182;-68
2023/03/17 13:56:05;;;;;;;10.50;6.30;;;;;;;;;;5052600;28;20194;-68
2023/03/17 13:58:33;;;;;;;7.77;3.60;;;;;;;;;;5051103;28;20202;-68
2023/03/17 14:01:01;;;;;;;10.17;4.83;;;;;;;;;;5052411;28;20308;-68
2023/03/17 14:03:49;;;;;;;10.77;4.53;;;;;;;;;;5051025;28;20273;-68
2023/03/17 14:06:16;;;;;;;10.40;4.67;;;;;;;;;;5052356;28;20301;-68
2023/03/17 14:08:48;;;;;;;7.43;3.60;;;;;;;;;;5050950;28;20277;-68
2023/03/17 14:11:24;;;;;;;11.00;4.60;;;;;;;;;;5051114;28;20650;-68
2023/03/17 14:14:06;;;;;;;11.47;4.67;;;;;;;;;;5052472;28;20166;-68
2023/03/17 14:16:35;;;;;;;6.50;4.20;;;;;;;;;;5052025;28;20209;-68
2023/03/17 14:19:16;;;;;;;7.20;3.63;;;;;;;;;;5052133;28;20255;-68
2023/03/17 14:21:42;;;;;;;7.47;3.70;;;;;;;;;;5052390;28;20162;-69
2023/03/17 14:24:17;;;;;;;8.67;3.90;;;;;;;;;;5052103;28;20643;-68
2023/03/17 14:26:43;;;;;;;6.17;4.23;;;;;;;;;;5053934;28;20190;-68
2023/03/17 14:29:13;;;;;;;10.70;3.93;;;;;;;;;;5054528;28;20273;-68
2023/03/17 14:31:39;;;;;;;7.03;3.80;;;;;;;;;;5056001;28;20211;-69
2023/03/17 14:34:12;;;;;;;9.90;3.97;;;;;;;;;;5055598;28;20190;-68
2023/03/17 14:36:38;;;;;;;5.20;3.80;;;;;;;;;;5054304;28;20236;-69
2023/03/17 14:39:04;;;;;;;9.57;5.83;;;;;;;;;;5055243;28;20210;-69
2023/03/17 14:41:33;;;;;;;5.83;3.30;;;;;;;;;;5055731;28;20174;-69
2023/03/17 14:44:00;;;;;;;9.27;4.37;;;;;;;;;;5054892;28;20617;-69
2023/03/17 14:46:30;;;;;;;11.60;4.83;;;;;;;;;;5054262;28;20202;-68
2023/03/17 14:49:16;;;;;;;10.93;4.63;;;;;;;;;;5055586;28;20175;-69
2023/03/17 14:51:42;;;;;;;9.07;4.93;;;;;;;;;;5055240;28;20191;-68